sensor_id;sensor_type;location;lat;lon;timestamp;P1;P2;P0
30713;PMS7003;17465;47.934;33.430;2023-07-24T21:44:09;28.20;26.80;18.80
30713;PMS7003;17465;47.934;33.430;2023-07-24T21:46:39;25.00;23.60;14.20
30713;PMS7003;17465;47.934;33.430;2023-07-24T22:02:12;28.40;26.80;19.00
30713;PMS7003;17465;47.934;33.430;2023-07-24T22:04:42;32.00;28.00;19.60
30713;PMS7003;17465;47.934;33.430;2023-07-24T22:07:13;28.00;27.20;18.00
30713;PMS7003;17465;47.934;33.430;2023-07-24T22:09:43;25.80;25.40;18.20
30713;PMS7003;17465;47.934;33.430;2023-07-24T22:12:13;26.60;25.20;18.20
30713;PMS7003;17465;47.934;33.430;2023-07-24T22:14:44;36.80;30.60;19.20
30713;PMS7003;17465;47.934;33.430;2023-07-24T22:17:14;41.80;35.00;23.00
30713;PMS7003;17465;47.934;33.430;2023-07-24T22:19:44;47.00;37.80;24.20
30713;PMS7003;17465;47.934;33.430;2023-07-24T22:22:15;54.25;43.75;29.00
30713;PMS7003;17465;47.934;33.430;2023-07-24T22:24:45;49.75;40.25;25.25
30713;PMS7003;17465;47.934;33.430;2023-07-24T22:27:16;53.50;43.00;29.00
30713;PMS7003;17465;47.934;33.430;2023-07-24T22:29:46;52.50;43.00;27.75
30713;PMS7003;17465;47.934;33.430;2023-07-24T22:32:16;39.00;33.80;21.00
30713;PMS7003;17465;47.934;33.430;2023-07-24T22:34:47;43.00;35.00;23.20
30713;PMS7003;17465;47.934;33.430;2023-07-24T22:37:21;40.40;34.80;21.60
30713;PMS7003;17465;47.934;33.430;2023-07-24T22:39:52;37.80;32.80;21.40
30713;PMS7003;17465;47.934;33.430;2023-07-24T22:42:22;35.80;31.20;21.60
30713;PMS7003;17465;47.934;33.430;2023-07-24T22:44:53;44.40;37.00;24.40
30713;PMS7003;17465;47.934;33.430;2023-07-24T22:47:23;42.60;36.00;23.00
30713;PMS7003;17465;47.934;33.430;2023-07-24T22:49:54;42.00;33.20;21.40
30713;PMS7003;17465;47.934;33.430;2023-07-24T22:52:24;39.00;33.80;23.20
30713;PMS7003;17465;47.934;33.430;2023-07-24T22:54:55;40.00;33.40;21.80
30713;PMS7003;17465;47.934;33.430;2023-07-24T22:57:26;36.20;32.00;23.40
30713;PMS7003;17465;47.934;33.430;2023-07-24T22:59:56;42.00;34.40;23.00
30713;PMS7003;17465;47.934;33.430;2023-07-24T23:02:27;39.60;33.00;22.00
30713;PMS7003;17465;47.934;33.430;2023-07-24T23:04:57;37.20;31.00;21.40
30713;PMS7003;17465;47.934;33.430;2023-07-24T23:07:28;50.25;42.75;29.25
30713;PMS7003;17465;47.934;33.430;2023-07-24T23:09:58;42.40;33.20;22.00
30713;PMS7003;17465;47.934;33.430;2023-07-24T23:12:28;49.75;42.00;27.50
30713;PMS7003;17465;47.934;33.430;2023-07-24T23:14:59;37.75;32.50;22.00
30713;PMS7003;17465;47.934;33.430;2023-07-24T23:17:29;41.40;34.20;23.40
30713;PMS7003;17465;47.934;33.430;2023-07-24T23:20:00;41.50;35.50;23.25
30713;PMS7003;17465;47.934;33.430;2023-07-24T23:22:30;51.00;42.00;27.00
30713;PMS7003;17465;47.934;33.430;2023-07-24T23:25:01;49.25;41.50;27.25
30713;PMS7003;17465;47.934;33.430;2023-07-24T23:27:31;46.00;38.00;25.50
30713;PMS7003;17465;47.934;33.430;2023-07-24T23:30:02;43.40;35.80;23.00
30713;PMS7003;17465;47.934;33.430;2023-07-24T23:32:33;43.75;36.75;24.50
30713;PMS7003;17465;47.934;33.430;2023-07-24T23:35:03;45.00;37.00;25.25
30713;PMS7003;17465;47.934;33.430;2023-07-24T23:37:34;43.00;36.75;24.50
30713;PMS7003;17465;47.934;33.430;2023-07-24T23:40:06;46.50;38.50;25.50
30713;PMS7003;17465;47.934;33.430;2023-07-24T23:42:37;43.25;36.50;25.25
30713;PMS7003;17465;47.934;33.430;2023-07-24T23:45:08;45.25;38.50;26.75
30713;PMS7003;17465;47.934;33.430;2023-07-24T23:47:39;48.00;40.00;25.75
30713;PMS7003;17465;47.934;33.430;2023-07-24T23:50:09;45.75;37.50;25.00
30713;PMS7003;17465;47.934;33.430;2023-07-24T23:55:19;49.00;41.50;26.50
30713;PMS7003;17465;47.934;33.430;2023-07-24T23:57:50;54.00;44.00;28.25
